createdAt,value
2017-09-03T00:00:50.073Z,6.04
2017-09-03T00:03:18.351Z,6.52
2017-09-03T00:05:46.619Z,7.00
2017-09-03T00:08:14.920Z,6.28
2017-09-03T00:10:43.206Z,7.50
2017-09-03T00:13:11.516Z,6.90
2017-09-03T00:15:39.768Z,7.86
2017-09-03T00:18:08.032Z,7.72
2017-09-03T00:20:36.320Z,7.76
2017-09-03T00:23:04.617Z,6.40
2017-09-03T00:25:32.881Z,7.46
2017-09-03T00:28:01.176Z,6.72
2017-09-03T00:30:29.445Z,6.60
2017-09-03T00:32:57.708Z,6.84
2017-09-03T00:35:26.001Z,6.98
2017-09-03T00:37:54.264Z,5.86
2017-09-03T00:40:22.563Z,6.86
2017-09-03T00:42:50.815Z,6.68
2017-09-03T00:45:19.079Z,6.34
2017-09-03T00:47:47.386Z,7.14
2017-09-03T00:50:15.644Z,6.44
2017-09-03T00:52:43.903Z,6.56
2017-09-03T00:55:12.197Z,7.24
2017-09-03T00:57:40.456Z,7.32
2017-09-03T01:00:08.758Z,7.26
2017-09-03T01:02:37.026Z,7.40
2017-09-03T01:05:05.339Z,7.22
2017-09-03T01:07:33.599Z,7.46
2017-09-03T01:10:01.865Z,7.08
2017-09-03T01:12:30.159Z,9.46
2017-09-03T01:14:58.449Z,6.62
2017-09-03T01:17:26.712Z,6.68
2017-09-03T01:19:54.991Z,6.82
2017-09-03T01:22:23.244Z,6.82
2017-09-03T01:24:51.535Z,7.64
2017-09-03T01:27:19.785Z,7.24
2017-09-03T01:29:48.048Z,6.88
2017-09-03T01:32:16.347Z,7.44
2017-09-03T01:34:44.598Z,6.84
2017-09-03T01:37:12.865Z,7.62
2017-09-03T01:39:41.147Z,7.00
2017-09-03T01:42:09.423Z,7.52
2017-09-03T01:44:37.697Z,7.56
2017-09-03T01:47:05.983Z,6.58
2017-09-03T01:49:34.244Z,7.12
2017-09-03T01:52:02.506Z,8.20
2017-09-03T01:54:30.783Z,7.62
2017-09-03T01:56:58.298Z,7.32
2017-09-03T01:59:26.551Z,7.20
2017-09-03T02:01:54.860Z,6.80
2017-09-03T02:04:23.146Z,6.98
2017-09-03T02:06:50.642Z,6.74
2017-09-03T02:09:18.931Z,7.30
2017-09-03T02:11:47.234Z,6.16
2017-09-03T02:14:15.496Z,7.18
2017-09-03T02:16:43.759Z,6.58
2017-09-03T02:19:12.018Z,7.02
2017-09-03T02:21:40.305Z,7.44
2017-09-03T02:24:08.558Z,6.86
2017-09-03T02:26:36.839Z,7.66
2017-09-03T02:29:05.102Z,7.14
2017-09-03T02:31:33.366Z,7.08
2017-09-03T02:34:01.656Z,8.28
2017-09-03T02:36:29.912Z,7.10
2017-09-03T02:38:58.176Z,8.44
2017-09-03T02:41:26.499Z,7.40
2017-09-03T02:43:54.751Z,7.96
2017-09-03T02:46:23.005Z,6.94
2017-09-03T02:48:51.287Z,7.00
2017-09-03T02:51:19.535Z,6.76
2017-09-03T02:53:48.123Z,9.62
2017-09-03T02:56:16.377Z,8.58
2017-09-03T02:58:44.632Z,7.34
2017-09-03T03:01:12.912Z,7.00
2017-09-03T03:03:41.207Z,8.64
2017-09-03T03:06:09.511Z,8.28
2017-09-03T03:08:37.768Z,8.16
2017-09-03T03:11:06.015Z,6.92
2017-09-03T03:13:34.304Z,6.22
2017-09-03T03:16:02.557Z,6.96
2017-09-03T03:18:30.835Z,7.16
2017-09-03T03:20:59.122Z,7.18
2017-09-03T03:23:27.390Z,6.92
2017-09-03T03:25:55.678Z,8.10
2017-09-03T03:28:23.963Z,7.44
2017-09-03T03:30:52.224Z,7.78
2017-09-03T03:33:20.563Z,7.88
2017-09-03T03:35:48.833Z,7.62
2017-09-03T03:38:17.090Z,6.92
2017-09-03T03:40:45.383Z,7.94
2017-09-03T03:43:13.636Z,7.48
2017-09-03T03:45:41.931Z,7.04
2017-09-03T03:48:10.195Z,7.52
2017-09-03T03:50:38.455Z,7.82
2017-09-03T03:53:06.724Z,7.00
2017-09-03T03:55:35.021Z,8.72
2017-09-03T03:58:03.355Z,6.98
2017-09-03T04:00:31.615Z,7.12
2017-09-03T04:02:59.885Z,6.90
2017-09-03T04:05:28.176Z,7.98
2017-09-03T04:07:56.441Z,7.80
2017-09-03T04:10:24.719Z,7.28
2017-09-03T04:12:52.980Z,7.84
2017-09-03T04:15:21.275Z,6.94
2017-09-03T04:17:49.528Z,7.32
2017-09-03T04:20:17.784Z,7.46
2017-09-03T04:22:46.081Z,7.12
2017-09-03T04:25:14.335Z,7.04
2017-09-03T04:27:42.612Z,7.12
2017-09-03T04:30:10.910Z,7.06
2017-09-03T04:32:39.176Z,8.04
2017-09-03T04:35:07.478Z,7.34
2017-09-03T04:37:35.741Z,7.42
2017-09-03T04:40:04.026Z,8.58
2017-09-03T04:42:32.281Z,7.84
2017-09-03T04:45:00.579Z,8.34
2017-09-03T04:47:28.844Z,8.34
2017-09-03T04:49:57.120Z,7.30
2017-09-03T04:52:25.411Z,8.26
2017-09-03T04:54:53.712Z,7.90
2017-09-03T04:57:21.966Z,7.98
2017-09-03T04:59:50.224Z,8.96
2017-09-03T05:02:18.520Z,9.06
2017-09-03T05:04:46.784Z,8.12
2017-09-03T05:07:15.036Z,8.34
2017-09-03T05:09:43.318Z,8.88
2017-09-03T05:12:11.699Z,8.84
2017-09-03T05:14:39.964Z,8.52
2017-09-03T05:17:08.220Z,7.98
2017-09-03T05:19:36.512Z,8.52
2017-09-03T05:22:04.780Z,8.74
2017-09-03T05:24:33.067Z,8.96
2017-09-03T05:27:01.331Z,9.30
2017-09-03T05:29:28.856Z,9.04
2017-09-03T05:31:57.120Z,8.44
2017-09-03T05:34:25.407Z,8.22
2017-09-03T05:36:53.675Z,9.20
2017-09-03T05:39:21.931Z,9.90
2017-09-03T05:41:50.215Z,9.10
2017-09-03T05:44:18.480Z,9.38
2017-09-03T05:46:46.779Z,9.60
2017-09-03T05:49:15.041Z,9.44
2017-09-03T05:51:43.297Z,8.38
2017-09-03T05:54:11.612Z,9.46
2017-09-03T05:56:39.899Z,11.68
2017-09-03T05:59:08.163Z,11.82
2017-09-03T06:01:36.464Z,11.90
2017-09-03T06:04:04.733Z,14.04
2017-09-03T06:06:33.026Z,13.16
2017-09-03T06:09:01.288Z,14.32
2017-09-03T06:11:29.589Z,15.68
2017-09-03T06:13:57.864Z,14.98
2017-09-03T06:16:26.128Z,16.32
2017-09-03T06:18:54.426Z,15.34
2017-09-03T06:21:22.712Z,18.06
2017-09-03T06:23:50.997Z,16.56
2017-09-03T06:26:19.331Z,16.54
2017-09-03T06:28:47.628Z,16.74
2017-09-03T06:31:15.917Z,18.06
2017-09-03T06:33:44.237Z,18.52
2017-09-03T06:36:11.751Z,16.68
2017-09-03T06:38:40.058Z,17.58
2017-09-03T06:41:08.343Z,19.44
2017-09-03T06:43:36.670Z,18.80
2017-09-03T06:46:04.967Z,19.50
2017-09-03T06:48:33.252Z,18.02
2017-09-03T06:51:01.540Z,20.18
2017-09-03T06:53:29.795Z,20.64
2017-09-03T06:55:58.084Z,19.86
2017-09-03T06:58:26.372Z,21.10
2017-09-03T07:00:54.659Z,20.64
2017-09-03T07:03:22.914Z,21.98
2017-09-03T07:05:51.236Z,22.94
2017-09-03T07:08:18.739Z,23.30
2017-09-03T07:10:47.019Z,21.68
2017-09-03T07:13:15.332Z,22.12
2017-09-03T07:15:43.599Z,24.76
2017-09-03T07:18:11.877Z,21.98
2017-09-03T07:20:40.178Z,22.22
2017-09-03T07:23:08.439Z,23.02
2017-09-03T07:25:36.736Z,22.82
2017-09-03T07:28:04.272Z,21.36
2017-09-03T07:30:32.544Z,24.58
2017-09-03T07:33:00.855Z,26.04
2017-09-03T07:35:29.136Z,23.24
2017-09-03T07:37:57.406Z,24.88
2017-09-03T07:40:25.722Z,26.18
2017-09-03T07:42:53.990Z,25.04
2017-09-03T07:45:22.265Z,27.48
2017-09-03T07:47:49.803Z,24.74
2017-09-03T07:50:18.984Z,24.76
2017-09-03T07:52:47.267Z,24.18
2017-09-03T07:55:15.583Z,24.44
2017-09-03T07:57:43.852Z,26.68
2017-09-03T08:00:12.124Z,26.84
2017-09-03T08:02:40.425Z,25.38
2017-09-03T08:05:08.700Z,24.10
2017-09-03T08:07:36.987Z,27.38
2017-09-03T08:10:05.291Z,26.58
2017-09-03T08:12:33.553Z,23.58
2017-09-03T08:15:01.811Z,23.20
2017-09-03T08:17:30.119Z,24.38
2017-09-03T08:19:58.413Z,24.10
2017-09-03T08:22:26.687Z,25.44
2017-09-03T08:24:54.997Z,22.70
2017-09-03T08:27:23.292Z,24.96
2017-09-03T08:29:51.546Z,22.38
2017-09-03T08:32:19.857Z,22.58
2017-09-03T08:34:48.123Z,24.92
2017-09-03T08:37:16.395Z,22.14
2017-09-03T08:39:44.716Z,23.80
2017-09-03T08:42:13.001Z,21.82
2017-09-03T08:44:41.322Z,25.28
2017-09-03T08:47:09.679Z,20.70
2017-09-03T08:49:37.972Z,22.64
2017-09-03T08:52:06.264Z,21.32
2017-09-03T08:54:34.606Z,19.88
2017-09-03T08:57:02.876Z,19.34
2017-09-03T08:59:31.143Z,18.96
2017-09-03T09:01:59.455Z,15.76
2017-09-03T09:04:27.724Z,17.14
2017-09-03T09:06:55.993Z,16.36
2017-09-03T09:09:24.297Z,16.54
2017-09-03T09:11:52.568Z,15.90
2017-09-03T09:14:20.855Z,15.92
2017-09-03T09:16:49.157Z,19.74
2017-09-03T09:19:17.459Z,17.96
2017-09-03T09:21:45.730Z,16.70
2017-09-03T09:24:14.036Z,15.88
2017-09-03T09:26:42.290Z,14.30
2017-09-03T09:29:10.555Z,14.96
2017-09-03T09:31:38.855Z,10.40
2017-09-03T09:34:07.135Z,8.48
2017-09-03T09:36:35.387Z,7.52
2017-09-03T09:39:02.922Z,8.32
2017-09-03T09:41:31.184Z,6.16
2017-09-03T09:43:59.435Z,6.22
2017-09-03T09:46:27.732Z,6.56
2017-09-03T09:48:55.999Z,7.86
2017-09-03T09:51:24.296Z,8.00
2017-09-03T09:53:52.608Z,7.90
2017-09-03T09:56:26.889Z,8.80
2017-09-03T09:58:55.171Z,9.94
2017-09-03T10:01:23.436Z,9.72
2017-09-03T10:03:51.728Z,11.08
2017-09-03T10:06:20.015Z,7.70
2017-09-03T10:08:48.280Z,8.38
2017-09-03T10:11:15.790Z,8.38
2017-09-03T10:13:44.086Z,9.68
2017-09-03T10:16:12.350Z,8.30
2017-09-03T10:18:40.652Z,10.54
2017-09-03T10:21:08.916Z,9.16
2017-09-03T10:23:37.190Z,11.16
2017-09-03T10:26:05.496Z,8.66
2017-09-03T10:28:33.767Z,7.78
2017-09-03T10:31:02.067Z,7.94
2017-09-03T10:33:30.336Z,7.90
2017-09-03T10:35:58.608Z,7.38
2017-09-03T10:38:26.912Z,7.32
2017-09-03T10:40:55.171Z,7.84
2017-09-03T10:43:23.472Z,7.50
2017-09-03T10:45:51.732Z,7.54
2017-09-03T10:48:19.994Z,6.90
2017-09-03T10:50:48.282Z,6.50
2017-09-03T10:53:16.565Z,6.94
2017-09-03T10:55:44.864Z,7.10
2017-09-03T10:58:13.124Z,7.40
2017-09-03T11:00:41.385Z,6.84
2017-09-03T11:03:09.675Z,6.82
2017-09-03T11:05:37.936Z,8.34
2017-09-03T11:08:06.283Z,8.62
2017-09-03T11:10:34.545Z,7.64
2017-09-03T11:13:02.812Z,10.14
2017-09-03T11:15:31.118Z,8.22
2017-09-03T11:17:59.384Z,8.32
2017-09-03T11:20:27.643Z,9.10
2017-09-03T11:22:55.938Z,9.18
2017-09-03T11:25:24.241Z,8.32
2017-09-03T11:27:52.502Z,8.36
2017-09-03T11:30:20.814Z,10.06
2017-09-03T11:32:49.086Z,8.38
2017-09-03T11:35:17.358Z,9.64
2017-09-03T11:37:45.647Z,9.46
2017-09-03T11:40:13.941Z,8.62
2017-09-03T11:42:42.219Z,9.80
2017-09-03T11:45:10.539Z,9.18
2017-09-03T11:47:38.798Z,8.80
2017-09-03T11:50:07.076Z,7.72
2017-09-03T11:52:35.361Z,6.94
2017-09-03T11:55:03.645Z,7.84
2017-09-03T11:57:31.911Z,8.76
2017-09-03T12:00:00.190Z,7.32
2017-09-03T12:02:28.476Z,6.66
2017-09-03T12:04:56.768Z,7.14
2017-09-03T12:07:25.067Z,7.46
2017-09-03T12:09:53.337Z,7.08
2017-09-03T12:12:21.661Z,5.74
2017-09-03T12:14:49.911Z,5.70
2017-09-03T12:17:18.162Z,6.26
2017-09-03T12:19:46.451Z,6.16
2017-09-03T12:22:14.711Z,6.24
2017-09-03T12:24:43.010Z,6.48
2017-09-03T12:27:11.306Z,5.22
2017-09-03T12:29:39.567Z,7.26
2017-09-03T12:32:07.847Z,7.38
2017-09-03T12:34:36.127Z,5.42
2017-09-03T12:37:04.383Z,6.92
2017-09-03T12:39:32.684Z,6.42
2017-09-03T12:42:00.943Z,6.34
2017-09-03T12:44:29.209Z,5.66
2017-09-03T12:46:57.502Z,6.22
2017-09-03T12:49:25.799Z,5.50
2017-09-03T12:51:54.063Z,6.38
2017-09-03T12:54:22.328Z,5.80
2017-09-03T12:56:50.653Z,5.72
2017-09-03T12:59:18.919Z,5.36
2017-09-03T13:01:46.436Z,5.36
2017-09-03T13:04:14.727Z,5.50
2017-09-03T13:06:42.233Z,4.86
2017-09-03T13:09:10.556Z,4.96
2017-09-03T13:11:38.868Z,5.76
2017-09-03T13:14:07.119Z,5.32
2017-09-03T13:16:35.428Z,7.38
2017-09-03T13:19:03.683Z,5.88
2017-09-03T13:21:31.953Z,5.20
2017-09-03T13:24:00.236Z,5.84
2017-09-03T13:26:28.496Z,5.44
2017-09-03T13:28:56.798Z,4.82
2017-09-03T13:31:25.067Z,4.88
2017-09-03T13:33:53.336Z,4.86
2017-09-03T13:36:21.628Z,4.46
2017-09-03T13:38:49.898Z,5.48
2017-09-03T13:41:18.201Z,5.30
2017-09-03T13:43:46.511Z,5.42
2017-09-03T13:46:14.797Z,6.96
2017-09-03T13:48:43.059Z,6.48
2017-09-03T13:51:11.343Z,6.06
2017-09-03T13:53:39.635Z,4.92
2017-09-03T13:56:07.903Z,7.08
2017-09-03T13:58:36.207Z,6.08
2017-09-03T14:01:04.463Z,6.76
2017-09-03T14:03:32.733Z,6.12
2017-09-03T14:06:01.041Z,5.82
2017-09-03T14:08:29.323Z,6.76
2017-09-03T14:10:57.598Z,6.58
2017-09-03T14:13:25.895Z,6.20
2017-09-03T14:15:54.152Z,6.22
2017-09-03T14:18:22.435Z,5.40
2017-09-03T14:20:50.696Z,4.80
2017-09-03T14:23:19.009Z,5.46
2017-09-03T14:25:47.272Z,5.52
2017-09-03T14:28:16.460Z,5.34
2017-09-03T14:30:44.764Z,5.40
2017-09-03T14:33:13.027Z,4.92
2017-09-03T14:35:41.292Z,4.76
2017-09-03T14:38:09.597Z,4.96
2017-09-03T14:40:37.855Z,5.42
2017-09-03T14:43:06.145Z,4.58
2017-09-03T14:45:34.420Z,5.00
2017-09-03T14:48:02.714Z,4.46
2017-09-03T14:50:30.980Z,4.28
2017-09-03T14:52:59.272Z,4.70
2017-09-03T14:55:27.551Z,5.08
2017-09-03T14:57:55.849Z,4.90
2017-09-03T15:00:24.114Z,4.58
2017-09-03T15:02:52.395Z,5.84
2017-09-03T15:05:20.660Z,4.74
2017-09-03T15:07:48.949Z,5.70
2017-09-03T15:10:17.226Z,4.90
2017-09-03T15:12:45.484Z,5.04
2017-09-03T15:15:13.779Z,4.08
2017-09-03T15:17:42.057Z,5.70
2017-09-03T15:20:09.551Z,4.92
2017-09-03T15:22:37.859Z,4.62
2017-09-03T15:25:06.119Z,5.46
2017-09-03T15:27:34.407Z,4.88
2017-09-03T15:30:02.670Z,5.08
2017-09-03T15:32:30.956Z,4.52
2017-09-03T15:34:59.233Z,4.88
2017-09-03T15:37:27.522Z,5.20
2017-09-03T15:39:55.828Z,4.00
2017-09-03T15:42:24.099Z,4.70
2017-09-03T15:44:52.364Z,5.94
2017-09-03T15:47:20.667Z,4.54
2017-09-03T15:49:48.921Z,4.70
2017-09-03T15:52:17.179Z,4.80
2017-09-03T15:54:45.480Z,4.76
2017-09-03T15:57:13.742Z,3.84
2017-09-03T15:59:41.996Z,4.08
2017-09-03T16:02:10.292Z,3.96
2017-09-03T16:04:38.554Z,3.58
2017-09-03T16:07:06.847Z,3.94
2017-09-03T16:09:35.112Z,4.06
2017-09-03T16:12:03.423Z,4.94
2017-09-03T16:14:31.696Z,4.16
2017-09-03T16:16:59.961Z,6.84
2017-09-03T16:19:28.252Z,5.00
2017-09-03T16:21:56.544Z,4.10
2017-09-03T16:24:24.848Z,4.72
2017-09-03T16:26:53.112Z,4.36
2017-09-03T16:29:21.375Z,4.62
2017-09-03T16:31:49.668Z,4.90
2017-09-03T16:34:17.934Z,4.66
2017-09-03T16:36:46.217Z,6.12
2017-09-03T16:39:14.516Z,4.68
2017-09-03T16:41:42.763Z,4.22
2017-09-03T16:44:11.054Z,7.02
2017-09-03T16:46:38.555Z,5.64
2017-09-03T16:49:06.812Z,5.56
2017-09-03T16:51:35.082Z,4.68
2017-09-03T16:54:03.407Z,4.58
2017-09-03T16:56:31.718Z,4.80
2017-09-03T16:58:59.983Z,5.04
2017-09-03T17:01:28.248Z,5.34
2017-09-03T17:03:56.547Z,4.62
2017-09-03T17:06:24.799Z,7.52
2017-09-03T17:08:52.297Z,5.84
2017-09-03T17:11:20.621Z,6.10
2017-09-03T17:13:48.879Z,4.84
2017-09-03T17:16:17.149Z,7.26
2017-09-03T17:18:45.465Z,6.20
2017-09-03T17:21:13.736Z,4.74
2017-09-03T17:23:41.987Z,4.54
2017-09-03T17:26:10.276Z,4.70
2017-09-03T17:28:38.545Z,4.38
2017-09-03T17:31:07.231Z,4.16
2017-09-03T17:33:35.522Z,4.50
2017-09-03T17:36:04.235Z,5.24
2017-09-03T17:38:49.204Z,4.88
2017-09-03T17:41:21.027Z,4.18
2017-09-03T17:43:50.096Z,4.48
2017-09-03T17:46:18.348Z,4.52
2017-09-03T17:48:46.638Z,4.62
2017-09-03T17:51:14.904Z,4.20
2017-09-03T17:53:43.200Z,4.22
2017-09-03T17:56:11.504Z,5.18
2017-09-03T17:58:39.819Z,4.40
2017-09-03T18:01:08.092Z,4.32
2017-09-03T18:03:36.390Z,4.80
2017-09-03T18:06:04.672Z,6.50
2017-09-03T18:08:32.968Z,4.58
2017-09-03T18:11:01.224Z,4.04
2017-09-03T18:13:29.480Z,3.90
2017-09-03T18:15:57.763Z,4.16
2017-09-03T18:18:26.019Z,4.70
2017-09-03T18:20:54.315Z,4.10
2017-09-03T18:23:22.608Z,4.20
2017-09-03T18:25:50.868Z,4.20
2017-09-03T18:28:20.075Z,4.00
2017-09-03T18:30:51.291Z,4.50
2017-09-03T18:33:19.551Z,4.36
2017-09-03T18:35:48.725Z,8.12
2017-09-03T18:38:17.475Z,4.50
2017-09-03T18:40:46.284Z,4.40
2017-09-03T18:43:16.139Z,4.82
2017-09-03T18:45:44.951Z,4.40
2017-09-03T18:48:13.251Z,4.68
2017-09-03T18:50:55.622Z,5.06
2017-09-03T18:53:25.694Z,4.80
2017-09-03T18:55:53.944Z,4.82
2017-09-03T18:58:40.950Z,4.80
2017-09-03T19:01:09.213Z,4.60
2017-09-03T19:03:37.511Z,5.56
2017-09-03T19:06:15.659Z,4.60
2017-09-03T19:08:43.954Z,5.04
2017-09-03T19:11:12.240Z,4.96
2017-09-03T19:13:40.502Z,4.72
2017-09-03T19:16:08.788Z,4.78
2017-09-03T19:18:37.048Z,5.24
2017-09-03T19:21:05.337Z,5.10
2017-09-03T19:23:33.619Z,4.40
2017-09-03T19:26:01.926Z,5.32
2017-09-03T19:28:30.192Z,5.58
2017-09-03T19:30:58.468Z,4.88
2017-09-03T19:33:26.734Z,4.70
2017-09-03T19:35:55.015Z,5.70
2017-09-03T19:38:24.064Z,5.96
2017-09-03T19:40:52.343Z,5.54
2017-09-03T19:43:20.638Z,5.42
2017-09-03T19:45:48.894Z,5.60
2017-09-03T19:48:17.211Z,5.54
2017-09-03T19:50:45.479Z,4.84
2017-09-03T19:53:13.732Z,6.54
2017-09-03T19:55:42.018Z,6.36
2017-09-03T19:58:10.272Z,6.02
2017-09-03T20:00:38.566Z,5.56
2017-09-03T20:03:06.827Z,5.88
2017-09-03T20:05:35.133Z,5.48
2017-09-03T20:08:03.383Z,5.82
2017-09-03T20:10:31.648Z,6.30
2017-09-03T20:12:59.927Z,5.14
2017-09-03T20:15:28.280Z,6.28
2017-09-03T20:17:56.591Z,5.98
2017-09-03T20:20:24.855Z,5.98
2017-09-03T20:22:53.107Z,6.12
2017-09-03T20:25:21.394Z,5.48
2017-09-03T20:27:49.663Z,6.18
2017-09-03T20:30:17.955Z,6.10
2017-09-03T20:32:46.221Z,6.06
2017-09-03T20:35:14.483Z,6.48
2017-09-03T20:37:42.787Z,6.38
2017-09-03T20:40:10.295Z,6.24
2017-09-03T20:42:38.593Z,5.46
2017-09-03T20:45:06.847Z,6.80
2017-09-03T20:47:35.098Z,6.36
2017-09-03T20:50:03.383Z,6.70
2017-09-03T20:52:31.647Z,6.96
2017-09-03T20:54:59.944Z,6.30
2017-09-03T20:57:28.211Z,6.20
2017-09-03T20:59:56.472Z,6.08
2017-09-03T21:02:24.765Z,7.70
2017-09-03T21:04:53.020Z,7.68
2017-09-03T21:07:21.289Z,6.34
2017-09-03T21:09:49.550Z,6.14
2017-09-03T21:12:17.847Z,7.00
2017-09-03T21:14:46.105Z,6.20
2017-09-03T21:17:14.398Z,5.50
2017-09-03T21:19:42.652Z,6.36
2017-09-03T21:22:10.944Z,6.98
2017-09-03T21:24:39.206Z,6.28
2017-09-03T21:27:07.515Z,7.60
2017-09-03T21:29:35.772Z,6.84
2017-09-03T21:32:04.071Z,6.60
2017-09-03T21:34:32.336Z,7.24
2017-09-03T21:37:00.595Z,7.36
2017-09-03T21:39:28.888Z,6.08
2017-09-03T21:41:57.159Z,7.00
2017-09-03T21:44:25.415Z,6.62
2017-09-03T21:46:53.719Z,6.98
2017-09-03T21:49:21.983Z,6.76
2017-09-03T21:51:50.236Z,7.76
2017-09-03T21:54:18.525Z,6.72
2017-09-03T21:56:46.833Z,6.62
2017-09-03T21:59:15.088Z,8.00
2017-09-03T22:01:43.335Z,7.78
2017-09-03T22:04:11.676Z,7.68
2017-09-03T22:06:39.961Z,7.84
2017-09-03T22:09:08.223Z,7.30
2017-09-03T22:11:36.511Z,8.00
2017-09-03T22:14:04.772Z,7.64
2017-09-03T22:16:33.068Z,6.98
2017-09-03T22:19:01.349Z,7.70
2017-09-03T22:21:29.682Z,6.82
2017-09-03T22:23:57.949Z,7.28
2017-09-03T22:26:26.216Z,7.24
2017-09-03T22:28:54.503Z,8.60
2017-09-03T22:31:22.800Z,6.82
2017-09-03T22:33:51.055Z,7.26
2017-09-03T22:36:19.359Z,7.66
2017-09-03T22:38:47.647Z,7.16
2017-09-03T22:41:15.943Z,7.68
2017-09-03T22:43:44.214Z,7.10
2017-09-03T22:46:12.478Z,6.60
2017-09-03T22:48:40.812Z,7.94
2017-09-03T22:51:09.068Z,6.66
2017-09-03T22:53:37.319Z,7.22
2017-09-03T22:56:05.632Z,8.04
2017-09-03T22:58:33.892Z,7.66
2017-09-03T23:01:02.165Z,7.46
2017-09-03T23:03:30.508Z,7.78
2017-09-03T23:05:58.765Z,8.62
2017-09-03T23:08:27.032Z,7.98
2017-09-03T23:10:55.332Z,7.74
2017-09-03T23:13:23.589Z,7.66
2017-09-03T23:15:51.886Z,7.16
2017-09-03T23:18:20.139Z,7.28
2017-09-03T23:20:48.392Z,6.20
2017-09-03T23:23:16.705Z,8.94
2017-09-03T23:25:44.959Z,7.76
2017-09-03T23:28:13.208Z,7.24
2017-09-03T23:30:41.495Z,8.90
2017-09-03T23:33:09.755Z,7.26
2017-09-03T23:35:38.067Z,7.70
2017-09-03T23:38:06.322Z,7.28
2017-09-03T23:40:34.588Z,7.50
2017-09-03T23:43:02.874Z,7.28
2017-09-03T23:45:31.136Z,7.84
2017-09-03T23:47:59.393Z,7.98
2017-09-03T23:50:27.694Z,8.12
2017-09-03T23:52:55.955Z,8.30
2017-09-03T23:55:24.246Z,8.44
2017-09-03T23:57:52.500Z,7.24
